createdAt,value
2022-11-09T00:01:38.842Z,21.05
2022-11-09T00:04:08.674Z,18.55
2022-11-09T00:06:37.573Z,25.33
2022-11-09T00:09:10.811Z,19.88
2022-11-09T00:11:39.580Z,21.42
2022-11-09T00:14:08.119Z,19.42
2022-11-09T00:16:36.548Z,21.30
2022-11-09T00:19:04.937Z,19.98
2022-11-09T00:21:33.321Z,20.90
2022-11-09T00:24:01.687Z,20.42
2022-11-09T00:26:31.516Z,19.98
2022-11-09T00:29:01.123Z,21.77
2022-11-09T00:31:29.503Z,21.80
2022-11-09T00:33:58.935Z,20.00
2022-11-09T00:36:30.496Z,21.27
2022-11-09T00:39:00.464Z,21.38
2022-11-09T00:41:29.473Z,20.25
2022-11-09T00:43:59.415Z,21.13
2022-11-09T00:46:29.389Z,19.10
2022-11-09T00:48:57.815Z,19.55
2022-11-09T00:51:26.956Z,20.40
2022-11-09T00:53:57.510Z,19.83
2022-11-09T00:56:26.495Z,19.17
2022-11-09T00:58:57.509Z,19.50
2022-11-09T01:01:27.441Z,20.23
2022-11-09T01:03:55.809Z,18.13
2022-11-09T01:06:26.366Z,19.83
2022-11-09T01:08:55.306Z,19.77
2022-11-09T01:11:24.950Z,22.02
2022-11-09T01:13:55.025Z,23.00
2022-11-09T01:16:25.405Z,22.80
2022-11-09T01:18:56.780Z,19.15
2022-11-09T01:21:28.793Z,23.95
2022-11-09T01:23:59.279Z,21.27
2022-11-09T01:26:29.250Z,21.35
2022-11-09T01:28:58.191Z,23.13
2022-11-09T01:31:26.759Z,22.70
2022-11-09T01:33:56.665Z,24.40
2022-11-09T01:36:26.534Z,21.88
2022-11-09T01:38:55.088Z,20.23
2022-11-09T01:41:25.624Z,22.23
2022-11-09T01:44:09.770Z,21.67
2022-11-09T01:46:49.178Z,22.50
2022-11-09T01:49:25.797Z,20.27
2022-11-09T01:51:58.977Z,22.98
2022-11-09T01:54:30.848Z,23.40
2022-11-09T01:57:05.509Z,23.80
2022-11-09T01:59:40.358Z,20.65
2022-11-09T02:02:10.929Z,23.42
2022-11-09T02:04:52.564Z,25.58
2022-11-09T02:07:23.793Z,27.25
2022-11-09T02:09:56.942Z,23.63
2022-11-09T02:12:29.474Z,21.15
2022-11-09T02:14:59.002Z,23.77
2022-11-09T02:17:28.772Z,23.55
2022-11-09T02:20:00.349Z,23.58
2022-11-09T02:22:34.949Z,21.10
2022-11-09T02:25:09.486Z,23.00
2022-11-09T02:27:42.139Z,25.48
2022-11-09T02:30:13.008Z,22.20
2022-11-09T02:32:41.967Z,24.67
2022-11-09T02:35:11.575Z,22.33
2022-11-09T02:37:45.997Z,24.77
2022-11-09T02:40:19.185Z,26.52
2022-11-09T02:42:47.827Z,24.20
2022-11-09T02:45:16.263Z,22.00
2022-11-09T02:47:45.063Z,28.67
2022-11-09T02:50:13.420Z,22.15
2022-11-09T02:52:43.140Z,21.88
2022-11-09T02:55:12.174Z,20.73
2022-11-09T02:57:41.356Z,22.25
2022-11-09T03:00:13.244Z,19.70
2022-11-09T03:02:42.916Z,18.25
2022-11-09T03:05:11.788Z,19.48
2022-11-09T03:07:46.128Z,18.15
2022-11-09T03:10:16.075Z,17.08
2022-11-09T03:12:44.503Z,16.05
2022-11-09T03:15:15.868Z,14.52
2022-11-09T03:17:47.304Z,15.52
2022-11-09T03:20:16.337Z,17.98
2022-11-09T03:22:46.410Z,16.92
2022-11-09T03:25:14.948Z,13.57
2022-11-09T03:27:43.378Z,15.73
2022-11-09T03:30:13.902Z,15.77
2022-11-09T03:32:46.769Z,16.85
2022-11-09T03:35:18.540Z,13.75
2022-11-09T03:37:48.287Z,15.20
2022-11-09T03:40:17.180Z,18.65
2022-11-09T03:42:47.345Z,13.95
2022-11-09T03:45:17.304Z,14.07
2022-11-09T03:47:47.108Z,16.02
2022-11-09T03:50:17.121Z,15.40
2022-11-09T03:52:47.990Z,15.80
2022-11-09T03:55:17.722Z,17.48
2022-11-09T03:57:47.083Z,14.02
2022-11-09T04:00:17.937Z,14.27
2022-11-09T04:02:46.810Z,14.85
2022-11-09T04:05:15.748Z,14.27
2022-11-09T04:07:50.012Z,15.82
2022-11-09T04:10:19.420Z,19.17
2022-11-09T04:12:47.850Z,15.52
2022-11-09T04:15:16.451Z,15.90
2022-11-09T04:17:45.805Z,15.38
2022-11-09T04:20:14.355Z,16.05
2022-11-09T04:22:42.733Z,16.08
2022-11-09T04:25:13.163Z,18.17
2022-11-09T04:27:42.010Z,15.95
2022-11-09T04:30:11.345Z,15.02
2022-11-09T04:32:39.820Z,15.85
2022-11-09T04:35:09.254Z,14.43
2022-11-09T04:37:37.605Z,13.82
2022-11-09T04:40:07.078Z,14.40
2022-11-09T04:42:36.911Z,16.77
2022-11-09T04:45:06.465Z,15.30
2022-11-09T04:47:36.104Z,16.73
2022-11-09T04:50:04.950Z,17.05
2022-11-09T04:52:33.676Z,17.10
2022-11-09T04:55:02.082Z,19.13
2022-11-09T04:57:32.137Z,16.10
2022-11-09T05:00:02.022Z,16.08
2022-11-09T05:02:33.582Z,17.02
2022-11-09T05:05:02.230Z,18.15
2022-11-09T05:07:32.405Z,17.15
2022-11-09T05:10:00.983Z,19.25
2022-11-09T05:12:29.321Z,14.27
2022-11-09T05:14:57.707Z,16.48
2022-11-09T05:17:27.741Z,17.02
2022-11-09T05:19:56.278Z,15.90
2022-11-09T05:22:42.273Z,16.77
2022-11-09T05:25:12.693Z,16.52
2022-11-09T05:27:42.620Z,13.80
2022-11-09T05:30:12.230Z,15.23
2022-11-09T05:32:42.215Z,16.20
2022-11-09T05:35:12.030Z,25.02
2022-11-09T05:37:41.073Z,20.13
2022-11-09T05:40:11.002Z,17.98
2022-11-09T05:42:41.920Z,15.63
2022-11-09T05:45:40.898Z,18.17
2022-11-09T05:48:06.020Z,14.93
2022-11-09T05:50:34.762Z,16.52
2022-11-09T05:53:23.566Z,15.85
2022-11-09T05:55:52.428Z,16.20
2022-11-09T05:58:20.855Z,16.27
2022-11-09T06:00:49.595Z,16.67
2022-11-09T06:03:19.683Z,13.55
2022-11-09T06:05:48.476Z,16.70
2022-11-09T06:08:17.241Z,21.35
2022-11-09T06:10:45.633Z,22.08
2022-11-09T06:13:14.045Z,18.60
2022-11-09T06:15:43.391Z,12.93
2022-11-09T06:18:11.932Z,15.82
2022-11-09T06:20:41.681Z,15.45
2022-11-09T06:23:12.189Z,14.38
2022-11-09T06:25:40.764Z,18.17
2022-11-09T06:28:09.079Z,16.83
2022-11-09T06:30:37.450Z,14.80
2022-11-09T06:33:06.877Z,15.25
2022-11-09T06:35:35.228Z,15.30
2022-11-09T06:38:05.106Z,14.13
2022-11-09T06:40:33.733Z,14.15
2022-11-09T06:43:02.696Z,14.52
2022-11-09T06:45:32.220Z,32.15
2022-11-09T06:48:02.357Z,17.00
2022-11-09T06:50:33.133Z,13.52
2022-11-09T06:53:03.098Z,18.08
2022-11-09T06:55:34.560Z,16.55
2022-11-09T06:58:07.692Z,16.98
2022-11-09T07:00:36.523Z,16.55
2022-11-09T07:03:05.578Z,14.30
2022-11-09T07:05:33.945Z,16.50
2022-11-09T07:08:03.066Z,18.38
2022-11-09T07:10:32.931Z,14.27
2022-11-09T07:13:03.314Z,16.48
2022-11-09T07:15:31.852Z,14.73
2022-11-09T07:18:01.752Z,18.63
2022-11-09T07:20:31.092Z,18.17
2022-11-09T07:22:59.530Z,15.27
2022-11-09T07:25:28.918Z,16.90
2022-11-09T07:28:04.157Z,18.98
2022-11-09T07:30:32.841Z,14.13
2022-11-09T07:33:10.299Z,17.27
2022-11-09T07:35:39.200Z,16.80
2022-11-09T07:38:07.476Z,16.42
2022-11-09T07:40:36.212Z,18.80
2022-11-09T07:43:07.600Z,17.83
2022-11-09T07:45:39.277Z,14.45
2022-11-09T07:48:09.404Z,18.10
2022-11-09T07:50:39.249Z,13.70
2022-11-09T07:53:08.547Z,16.70
2022-11-09T07:55:37.809Z,15.80
2022-11-09T07:58:09.469Z,14.38
2022-11-09T08:00:40.051Z,16.25
2022-11-09T08:03:09.318Z,14.27
2022-11-09T08:05:38.130Z,16.83
2022-11-09T08:08:08.490Z,15.23
2022-11-09T08:10:37.978Z,16.25
2022-11-09T08:13:09.485Z,13.55
2022-11-09T08:15:38.465Z,14.18
2022-11-09T08:18:08.900Z,16.27
2022-11-09T08:20:37.406Z,13.52
2022-11-09T08:23:05.927Z,14.98
2022-11-09T08:25:36.147Z,14.73
2022-11-09T08:28:05.234Z,15.50
2022-11-09T08:33:47.122Z,13.90
2022-11-09T08:36:17.596Z,15.20
2022-11-09T08:38:46.735Z,14.27
2022-11-09T08:41:15.424Z,15.85
2022-11-09T08:43:43.852Z,15.55
2022-11-09T08:46:14.263Z,15.05
2022-11-09T08:48:51.282Z,17.13
2022-11-09T08:51:19.801Z,37.90
2022-11-09T08:53:48.449Z,18.15
2022-11-09T08:56:19.105Z,15.18
2022-11-09T08:58:47.891Z,16.40
2022-11-09T09:01:18.022Z,18.88
2022-11-09T09:03:47.043Z,13.65
2022-11-09T09:06:15.673Z,14.10
2022-11-09T09:08:46.542Z,13.85
2022-11-09T09:11:16.618Z,13.32
2022-11-09T09:13:45.038Z,12.90
2022-11-09T09:16:15.612Z,12.77
2022-11-09T09:18:45.696Z,15.63
2022-11-09T09:21:14.043Z,12.15
2022-11-09T09:23:42.324Z,12.13
2022-11-09T09:26:11.091Z,11.82
2022-11-09T09:28:40.055Z,12.68
2022-11-09T09:31:15.659Z,13.23
2022-11-09T09:33:49.199Z,12.40
2022-11-09T09:36:19.517Z,12.20
2022-11-09T09:38:59.107Z,10.93
2022-11-09T09:41:36.256Z,22.92
2022-11-09T09:44:17.700Z,17.08
2022-11-09T09:46:51.988Z,11.77
2022-11-09T09:49:27.467Z,12.75
2022-11-09T09:52:01.276Z,13.05
2022-11-09T09:54:35.222Z,10.40
2022-11-09T09:57:04.048Z,11.93
2022-11-09T09:59:39.923Z,13.77
2022-11-09T10:02:16.337Z,12.05
2022-11-09T10:04:46.310Z,12.43
2022-11-09T10:07:20.238Z,15.07
2022-11-09T10:10:04.315Z,13.00
2022-11-09T10:12:43.715Z,12.75
2022-11-09T10:15:22.609Z,13.50
2022-11-09T10:18:03.200Z,12.43
2022-11-09T10:20:53.049Z,14.45
2022-11-09T10:23:37.304Z,13.20
2022-11-09T10:26:15.425Z,13.65
2022-11-09T10:29:14.559Z,22.23
2022-11-09T10:31:42.426Z,27.73
2022-11-09T10:34:18.947Z,13.15
2022-11-09T10:36:55.067Z,22.25
2022-11-09T10:39:27.889Z,14.85
2022-11-09T10:42:14.848Z,14.35
2022-11-09T10:45:13.088Z,12.85
2022-11-09T10:48:00.749Z,15.93
2022-11-09T10:50:50.120Z,15.95
2022-11-09T10:53:38.272Z,13.02
2022-11-09T10:56:32.992Z,14.38
2022-11-09T11:02:54.428Z,12.77
2022-11-09T11:05:41.583Z,13.93
2022-11-09T11:08:34.970Z,12.00
2022-11-09T11:11:35.365Z,13.77
2022-11-09T11:14:30.036Z,13.52
2022-11-09T11:17:24.367Z,12.65
2022-11-09T11:20:32.509Z,14.80
2022-11-09T11:23:21.698Z,15.13
2022-11-09T11:26:35.420Z,11.63
2022-11-09T11:29:44.483Z,12.60
2022-11-09T11:32:32.297Z,11.98
2022-11-09T11:35:24.568Z,13.23
2022-11-09T11:38:23.820Z,13.60
2022-11-09T11:41:27.714Z,13.93
2022-11-09T11:44:27.937Z,13.80
2022-11-09T11:47:21.097Z,13.00
2022-11-09T11:50:27.183Z,14.60
2022-11-09T11:53:28.488Z,12.23
2022-11-09T11:56:30.481Z,12.90
2022-11-09T11:59:34.919Z,12.30
2022-11-09T12:02:47.886Z,11.85
2022-11-09T12:06:11.907Z,12.55
2022-11-09T12:09:15.638Z,12.43
2022-11-09T12:12:14.556Z,10.98
2022-11-09T12:18:06.192Z,9.93
2022-11-09T12:21:01.180Z,10.38
2022-11-09T12:24:08.445Z,10.02
2022-11-09T12:27:31.539Z,9.75
2022-11-09T12:30:22.561Z,12.02
2022-11-09T12:33:14.483Z,11.35
2022-11-09T12:36:10.210Z,11.05
2022-11-09T12:39:03.347Z,9.45
2022-11-09T12:41:52.440Z,8.32
2022-11-09T12:44:46.521Z,8.50
2022-11-09T12:47:44.990Z,8.43
2022-11-09T12:50:33.496Z,23.42
2022-11-09T12:53:24.127Z,9.32
2022-11-09T12:56:19.222Z,10.50
2022-11-09T12:59:36.800Z,10.98
2022-11-09T13:02:31.721Z,8.02
2022-11-09T13:05:31.811Z,12.32
2022-11-09T13:08:22.448Z,8.40
2022-11-09T13:11:23.888Z,9.63
2022-11-09T13:14:36.270Z,8.75
2022-11-09T13:18:02.254Z,10.13
2022-11-09T13:20:55.829Z,11.35
2022-11-09T13:24:02.190Z,9.82
2022-11-09T13:27:00.879Z,9.10
2022-11-09T13:29:56.439Z,10.10
2022-11-09T13:33:24.898Z,10.77
2022-11-09T13:36:21.542Z,9.25
2022-11-09T13:39:32.986Z,9.00
2022-11-09T13:42:31.297Z,11.32
2022-11-09T13:45:31.306Z,11.10
2022-11-09T13:48:40.135Z,9.48
2022-11-09T13:51:51.077Z,10.73
2022-11-09T13:54:39.149Z,13.10
2022-11-09T13:57:27.186Z,13.57
2022-11-09T14:00:19.827Z,11.20
2022-11-09T14:03:22.719Z,12.10
2022-11-09T14:06:14.141Z,10.63
2022-11-09T14:09:02.441Z,10.65
2022-11-09T14:12:15.228Z,12.15
2022-11-09T14:15:30.186Z,12.68
2022-11-09T14:18:31.908Z,10.13
2022-11-09T14:21:32.405Z,11.95
2022-11-09T14:24:22.081Z,12.38
2022-11-09T14:27:18.588Z,11.52
2022-11-09T14:30:16.815Z,10.90
2022-11-09T14:33:03.869Z,15.35
2022-11-09T14:35:52.777Z,11.43
2022-11-09T14:38:48.876Z,14.07
2022-11-09T14:41:38.843Z,15.48
2022-11-09T14:44:32.468Z,11.77
2022-11-09T14:47:22.909Z,16.20
2022-11-09T14:50:16.952Z,11.88
2022-11-09T14:53:06.105Z,13.40
2022-11-09T14:55:56.695Z,11.55
2022-11-09T14:58:47.771Z,12.65
2022-11-09T15:01:34.895Z,12.98
2022-11-09T15:04:23.801Z,11.30
2022-11-09T15:07:21.212Z,14.02
2022-11-09T15:10:19.490Z,12.73
2022-11-09T15:13:08.234Z,15.10
2022-11-09T15:15:56.626Z,14.18
2022-11-09T15:18:46.822Z,14.90
2022-11-09T15:21:38.301Z,14.75
2022-11-09T15:24:27.552Z,14.48
2022-11-09T15:27:32.741Z,13.95
2022-11-09T15:30:44.693Z,19.25
2022-11-09T15:33:44.981Z,14.57
2022-11-09T15:36:45.061Z,14.70
2022-11-09T15:39:33.355Z,18.77
2022-11-09T15:42:20.437Z,18.40
2022-11-09T15:45:08.616Z,18.20
2022-11-09T15:47:57.920Z,18.70
2022-11-09T15:50:45.114Z,14.77
2022-11-09T15:53:33.040Z,19.58
2022-11-09T15:56:22.559Z,15.52
2022-11-09T15:59:13.919Z,15.30
2022-11-09T16:02:00.978Z,17.75
2022-11-09T16:04:49.337Z,18.88
2022-11-09T16:07:36.667Z,16.30
2022-11-09T16:10:25.722Z,22.88
2022-11-09T16:13:13.057Z,14.98
2022-11-09T16:16:05.187Z,20.80
2022-11-09T16:18:52.721Z,19.77
2022-11-09T16:21:41.389Z,20.60
2022-11-09T16:24:28.295Z,16.67
2022-11-09T16:27:43.045Z,19.92
2022-11-09T16:30:23.518Z,19.35
2022-11-09T16:33:10.721Z,16.38
2022-11-09T16:36:00.922Z,17.98
2022-11-09T16:38:52.162Z,17.83
2022-11-09T16:41:41.966Z,22.55
2022-11-09T16:44:34.997Z,16.75
2022-11-09T16:47:23.200Z,19.95
2022-11-09T16:50:10.878Z,16.45
2022-11-09T16:52:58.666Z,17.27
2022-11-09T16:55:47.154Z,17.17
2022-11-09T16:58:34.998Z,16.73
2022-11-09T17:01:23.833Z,19.92
2022-11-09T17:04:11.459Z,20.17
2022-11-09T17:07:01.071Z,20.05
2022-11-09T17:09:47.822Z,14.05
2022-11-09T17:12:36.301Z,18.85
2022-11-09T17:15:23.553Z,16.48
2022-11-09T17:18:14.115Z,18.95
2022-11-09T17:21:01.164Z,17.33
2022-11-09T17:23:48.983Z,19.25
2022-11-09T17:26:38.561Z,19.60
2022-11-09T17:29:28.154Z,15.50
2022-11-09T17:32:15.520Z,16.15
2022-11-09T17:35:03.014Z,15.40
2022-11-09T17:37:50.344Z,16.35
2022-11-09T17:40:37.489Z,17.65
2022-11-09T17:43:25.264Z,16.33
2022-11-09T17:46:15.546Z,16.90
2022-11-09T17:49:07.061Z,18.88
2022-11-09T17:51:57.789Z,15.60
2022-11-09T17:54:44.942Z,16.50
2022-11-09T17:57:33.064Z,18.13
2022-11-09T18:00:20.871Z,22.50
2022-11-09T18:03:09.428Z,16.75
2022-11-09T18:05:57.517Z,16.80
2022-11-09T18:08:44.956Z,17.23
2022-11-09T18:11:34.100Z,16.42
2022-11-09T18:14:21.902Z,17.67
2022-11-09T18:17:09.068Z,14.82
2022-11-09T18:19:57.649Z,15.07
2022-11-09T18:22:44.733Z,11.90
2022-11-09T18:25:31.906Z,13.80
2022-11-09T18:28:21.060Z,12.98
2022-11-09T18:31:11.670Z,14.80
2022-11-09T18:33:58.735Z,17.27
2022-11-09T18:36:47.246Z,13.85
2022-11-09T18:39:34.577Z,12.55
2022-11-09T18:42:22.019Z,11.20
2022-11-09T18:45:10.688Z,15.98
2022-11-09T18:47:57.764Z,17.65
2022-11-09T18:50:44.685Z,12.43
2022-11-09T18:53:36.969Z,13.60
2022-11-09T18:56:26.174Z,15.15
2022-11-09T18:59:13.627Z,10.82
2022-11-09T19:02:02.197Z,13.20
2022-11-09T19:04:49.750Z,12.43
2022-11-09T19:07:38.425Z,13.43
2022-11-09T19:10:26.991Z,12.95
2022-11-09T19:13:13.839Z,10.20
2022-11-09T19:16:00.623Z,14.93
2022-11-09T19:18:47.716Z,13.88
2022-11-09T19:21:40.158Z,16.58
2022-11-09T19:24:32.521Z,13.25
2022-11-09T19:27:21.278Z,23.67
2022-11-09T19:30:10.030Z,16.92
2022-11-09T19:32:56.992Z,13.73
2022-11-09T19:35:49.427Z,13.02
2022-11-09T19:41:37.251Z,11.82
2022-11-09T19:44:25.695Z,21.35
2022-11-09T19:47:12.823Z,14.02
2022-11-09T19:49:59.980Z,12.48
2022-11-09T19:52:46.957Z,12.52
2022-11-09T19:55:34.110Z,14.75
2022-11-09T19:58:21.525Z,11.90
2022-11-09T20:01:13.644Z,13.27
2022-11-09T20:04:06.346Z,13.13
2022-11-09T20:06:55.837Z,12.10
2022-11-09T20:09:42.779Z,11.48
2022-11-09T20:12:49.634Z,11.55
2022-11-09T20:15:36.502Z,11.18
2022-11-09T20:18:25.438Z,10.82
2022-11-09T20:21:13.831Z,13.27
2022-11-09T20:24:00.845Z,12.70
2022-11-09T20:26:47.985Z,11.82
2022-11-09T20:29:34.888Z,11.45
2022-11-09T20:32:22.105Z,12.13
2022-11-09T20:35:11.755Z,15.23
2022-11-09T20:37:58.912Z,9.55
2022-11-09T20:40:45.971Z,15.85
2022-11-09T20:43:34.370Z,10.05
2022-11-09T20:46:23.664Z,12.85
2022-11-09T20:49:10.826Z,10.63
2022-11-09T20:51:59.655Z,10.48
2022-11-09T20:54:46.403Z,10.98
2022-11-09T20:57:33.519Z,11.93
2022-11-09T21:00:24.345Z,10.88
2022-11-09T21:03:11.873Z,10.90
2022-11-09T21:05:59.449Z,11.98
2022-11-09T21:08:50.018Z,10.38
2022-11-09T21:11:37.185Z,12.35
2022-11-09T21:14:24.520Z,12.20
2022-11-09T21:17:12.070Z,10.82
2022-11-09T21:19:59.014Z,13.52
2022-11-09T21:23:03.318Z,12.98
2022-11-09T21:26:09.181Z,13.25
2022-11-09T21:29:13.528Z,12.82
2022-11-09T21:32:00.929Z,12.40
2022-11-09T21:34:48.281Z,12.90
2022-11-09T21:37:35.600Z,10.73
2022-11-09T21:40:22.885Z,10.77
2022-11-09T21:43:11.681Z,13.48
2022-11-09T21:45:58.660Z,12.10
2022-11-09T21:48:45.652Z,10.50
2022-11-09T21:51:33.213Z,12.23
2022-11-09T21:54:20.431Z,11.32
2022-11-09T21:57:07.561Z,12.48
2022-11-09T21:59:55.752Z,14.88
2022-11-09T22:02:43.115Z,12.20
2022-11-09T22:05:29.858Z,12.02
2022-11-09T22:08:16.705Z,12.63
2022-11-09T22:11:07.977Z,11.55
2022-11-09T22:14:12.334Z,11.70
2022-11-09T22:17:01.400Z,13.25
2022-11-09T22:20:05.743Z,13.07
2022-11-09T22:22:52.620Z,12.75
2022-11-09T22:25:43.848Z,12.73
2022-11-09T22:28:34.121Z,11.15
2022-11-09T22:31:21.065Z,11.70
2022-11-09T22:34:09.407Z,10.30
2022-11-09T22:36:56.201Z,12.10
2022-11-09T22:39:46.954Z,11.25
2022-11-09T22:42:34.467Z,14.45
2022-11-09T22:45:21.539Z,12.95
2022-11-09T22:48:08.285Z,14.52
2022-11-09T22:50:56.717Z,13.60
2022-11-09T22:53:43.902Z,17.27
2022-11-09T22:56:30.885Z,11.25
2022-11-09T22:59:17.686Z,11.77
2022-11-09T23:02:04.468Z,12.65
2022-11-09T23:04:51.417Z,10.68
2022-11-09T23:07:39.707Z,12.48
2022-11-09T23:10:26.669Z,11.35
2022-11-09T23:13:13.685Z,11.32
2022-11-09T23:16:03.892Z,11.82
2022-11-09T23:18:56.958Z,13.15
2022-11-09T23:21:51.921Z,12.23
2022-11-09T23:24:57.536Z,12.55
2022-11-09T23:27:45.207Z,13.70
2022-11-09T23:30:31.933Z,15.50
2022-11-09T23:33:19.132Z,12.90
2022-11-09T23:36:07.560Z,12.85
2022-11-09T23:38:54.965Z,12.00
2022-11-09T23:41:43.284Z,17.15
2022-11-09T23:44:31.213Z,14.55
2022-11-09T23:47:18.314Z,14.50
2022-11-09T23:50:06.236Z,13.48
2022-11-09T23:52:56.872Z,13.43
2022-11-09T23:55:44.185Z,15.43
2022-11-09T23:58:32.592Z,12.80
